createdAt,value
2019-05-11T16:41:29.104Z,47.50
2019-05-11T16:42:08.468Z,64.92
2019-05-11T16:42:47.826Z,82.03
2019-05-11T16:43:28.682Z,97.53
2019-05-11T16:44:08.069Z,53.03
2019-05-11T16:44:48.315Z,53.28
2019-05-11T16:45:29.786Z,76.50
2019-05-11T16:46:08.904Z,103.40
2019-05-11T16:46:50.984Z,45.85
2019-05-11T16:47:28.626Z,34.47
2019-05-11T16:48:07.969Z,43.40
2019-05-11T16:48:47.035Z,66.12
2019-05-11T16:49:29.637Z,111.88
2019-05-11T16:50:08.404Z,73.60
2019-05-11T16:50:47.272Z,56.42
2019-05-11T16:51:28.241Z,47.67
2019-05-11T16:52:07.815Z,52.08
2019-05-11T16:52:48.140Z,123.55
2019-05-11T16:53:28.296Z,134.55
2019-05-11T16:54:06.635Z,106.77
2019-05-11T16:54:47.664Z,95.97
2019-05-11T16:55:25.695Z,55.03
2019-05-11T16:56:04.162Z,92.97
2019-05-11T16:56:42.882Z,65.50
2019-05-11T16:57:21.658Z,136.32
2019-05-11T16:58:00.427Z,126.18
2019-05-11T16:58:41.103Z,36.70
2019-05-11T16:59:19.110Z,72.73
2019-05-11T16:59:58.493Z,118.80
2019-05-11T17:00:39.286Z,107.40
2019-05-11T17:01:18.785Z,89.65
2019-05-11T17:01:58.648Z,70.15
2019-05-11T17:02:38.206Z,98.70
2019-05-11T17:03:17.248Z,73.90
2019-05-11T17:03:57.699Z,88.15
2019-05-11T17:04:35.883Z,70.80
2019-05-11T17:05:25.696Z,106.47
2019-05-11T17:05:54.925Z,151.00
2019-05-11T17:06:33.340Z,57.00
2019-05-11T17:07:12.115Z,69.70
2019-05-11T17:07:51.033Z,99.52
2019-05-11T17:08:30.003Z,84.55
2019-05-11T17:09:09.371Z,92.08
2019-05-11T17:09:48.327Z,75.80
2019-05-11T17:10:28.405Z,128.97
2019-05-11T17:11:08.231Z,123.38
2019-05-11T17:11:48.991Z,78.25
2019-05-11T17:12:28.678Z,119.35
2019-05-11T17:13:08.556Z,54.25
2019-05-11T17:14:08.186Z,106.37
2019-05-11T17:15:39.411Z,79.30
2019-05-11T17:17:24.341Z,87.08
2019-05-11T17:19:00.762Z,95.25
2019-05-11T17:21:09.242Z,78.62
2019-05-11T17:21:55.806Z,56.92
2019-05-11T17:23:00.950Z,86.47
2019-05-11T17:23:51.427Z,175.10
2019-05-11T17:24:31.173Z,144.17
2019-05-11T17:25:10.048Z,46.55
2019-05-11T17:25:49.165Z,108.03
2019-05-11T17:26:28.011Z,98.00
2019-05-11T17:27:08.781Z,126.53
2019-05-11T17:27:48.690Z,112.20
2019-05-11T17:28:29.431Z,86.30
2019-05-11T17:29:10.070Z,171.18
2019-05-11T17:29:48.783Z,113.95
2019-05-11T17:30:28.969Z,92.78
2019-05-11T17:31:08.252Z,78.47
2019-05-11T17:31:48.458Z,135.97
2019-05-11T17:32:29.355Z,119.50
2019-05-11T17:33:08.705Z,124.65
2019-05-11T17:33:47.837Z,162.35
2019-05-11T17:34:28.470Z,78.22
2019-05-11T17:35:08.435Z,96.72
2019-05-11T17:35:48.004Z,158.85
2019-05-11T17:36:27.902Z,87.50
2019-05-11T17:37:08.921Z,102.92
2019-05-11T17:37:48.515Z,128.70
2019-05-11T17:38:31.031Z,159.50
2019-05-11T17:39:10.726Z,138.45
2019-05-11T17:39:49.577Z,92.47
2019-05-11T17:40:28.831Z,133.27
2019-05-11T17:41:08.557Z,139.30
2019-05-11T17:41:47.955Z,83.10
2019-05-11T17:42:27.092Z,147.35
2019-05-11T17:43:15.452Z,116.20
2019-05-11T17:43:54.169Z,216.75
2019-05-11T17:44:37.738Z,115.15
2019-05-11T17:45:15.573Z,92.92
2019-05-11T17:45:54.430Z,138.72
2019-05-11T17:46:32.814Z,150.18
2019-05-11T17:47:11.599Z,99.42
2019-05-11T17:47:50.684Z,172.05
2019-05-11T17:48:29.734Z,183.57
2019-05-11T17:49:08.235Z,157.12
2019-05-11T17:49:57.371Z,108.90
2019-05-11T17:50:28.204Z,168.52
2019-05-11T17:51:20.413Z,150.90
2019-05-11T17:51:48.469Z,146.35
2019-05-11T17:52:30.249Z,90.05
2019-05-11T17:53:09.073Z,121.00
2019-05-11T17:53:48.311Z,239.45
2019-05-11T17:54:28.439Z,176.10
2019-05-11T17:55:07.490Z,192.10
2019-05-11T17:55:48.611Z,173.75
2019-05-11T17:56:28.004Z,153.05
2019-05-11T17:57:07.095Z,115.65
2019-05-11T17:57:45.873Z,163.60
2019-05-11T17:58:24.711Z,105.45
2019-05-11T17:59:03.150Z,113.80
2019-05-11T17:59:42.094Z,122.75
2019-05-11T18:00:21.210Z,89.13
2019-05-11T18:01:00.386Z,64.57
2019-05-11T18:02:38.973Z,77.33
2019-05-11T18:03:17.746Z,139.75
2019-05-11T18:03:58.198Z,159.60
2019-05-11T18:04:36.359Z,138.37
2019-05-11T18:05:15.082Z,111.08
2019-05-11T18:05:53.928Z,86.53
2019-05-11T18:06:32.465Z,165.22
2019-05-11T18:07:24.292Z,168.47
2019-05-11T18:07:51.847Z,78.17
2019-05-11T18:08:31.041Z,168.02
2019-05-11T18:09:10.664Z,186.55
2019-05-11T18:09:49.451Z,129.75
2019-05-11T18:10:28.459Z,180.95
2019-05-11T18:11:08.376Z,151.68
2019-05-11T18:12:14.769Z,147.00
2019-05-11T18:12:58.281Z,80.95
2019-05-11T18:13:59.251Z,114.22
2019-05-11T18:14:39.486Z,78.67
2019-05-11T18:15:18.555Z,72.37
2019-05-11T18:15:58.390Z,85.53
2019-05-11T18:16:37.119Z,172.07
2019-05-11T18:17:17.360Z,79.25
2019-05-11T18:17:58.610Z,183.52
2019-05-11T18:18:37.821Z,47.30
2019-05-11T18:19:18.376Z,148.75
2019-05-11T18:20:06.620Z,160.20
2019-05-11T18:20:38.094Z,70.20
2019-05-11T18:21:18.858Z,132.95
2019-05-11T18:21:57.782Z,100.97
2019-05-11T18:22:38.428Z,169.67
2019-05-11T18:23:17.606Z,97.05
2019-05-11T18:23:56.568Z,152.78
2019-05-11T18:24:35.323Z,117.03
2019-05-11T18:25:14.235Z,96.00
2019-05-11T18:25:53.098Z,126.50
2019-05-11T18:26:31.882Z,80.92
2019-05-11T18:27:10.263Z,173.02
2019-05-11T18:27:49.063Z,167.77
2019-05-11T18:28:29.116Z,200.20
2019-05-11T18:29:09.470Z,193.05
2019-05-11T18:29:48.565Z,108.95
2019-05-11T18:30:29.133Z,86.95
2019-05-11T18:31:07.651Z,159.50
2019-05-11T18:31:48.522Z,144.85
2019-05-11T18:32:28.254Z,124.45
2019-05-11T18:33:11.353Z,144.65
2019-05-11T18:33:50.224Z,146.20
2019-05-11T18:34:28.667Z,106.12
2019-05-11T18:35:08.415Z,143.15
2019-05-11T18:35:47.468Z,52.67
2019-05-11T18:36:28.792Z,75.55
2019-05-11T18:37:08.577Z,103.58
2019-05-11T18:38:04.983Z,35.20
2019-05-11T18:38:44.334Z,134.30
2019-05-11T18:39:22.786Z,111.40
2019-05-11T18:40:01.781Z,82.37
2019-05-11T18:40:41.963Z,148.60
2019-05-11T18:41:21.734Z,99.30
2019-05-11T18:42:00.329Z,103.53
2019-05-11T18:42:39.542Z,98.80
2019-05-11T18:43:21.430Z,62.33
2019-05-11T18:44:01.195Z,51.35
2019-05-11T18:44:39.938Z,115.17
2019-05-11T18:45:19.074Z,95.65
2019-05-11T18:45:58.413Z,91.15
2019-05-11T18:46:38.873Z,71.30
2019-05-11T18:47:18.378Z,66.72
2019-05-11T18:47:58.223Z,60.85
2019-05-11T18:48:38.121Z,70.90
2019-05-11T18:49:17.958Z,112.30
2019-05-11T18:49:58.784Z,74.25
2019-05-11T18:50:38.389Z,58.47
2019-05-11T18:51:18.341Z,71.70
2019-05-11T18:52:00.315Z,145.25
2019-05-11T18:52:39.124Z,70.63
2019-05-11T18:53:18.666Z,52.08
2019-05-11T18:53:58.554Z,54.77
2019-05-11T18:54:38.512Z,46.27
2019-05-11T18:55:19.003Z,78.70
2019-05-11T18:55:59.010Z,140.37
2019-05-11T18:56:38.231Z,78.23
2019-05-11T18:57:18.741Z,53.78
2019-05-11T18:57:59.926Z,108.22
2019-05-11T18:58:39.057Z,86.00
2019-05-11T18:59:19.507Z,112.37
2019-05-11T18:59:58.787Z,77.35
2019-05-11T19:00:38.152Z,67.60
2019-05-11T19:01:17.806Z,59.45
2019-05-11T19:01:58.507Z,96.57
2019-05-11T19:02:38.393Z,80.97
2019-05-11T19:03:19.241Z,76.62
2019-05-11T19:03:56.945Z,90.17
2019-05-11T19:04:38.032Z,46.10
2019-05-11T19:05:17.993Z,73.00
2019-05-11T19:05:57.748Z,46.58
2019-05-11T19:06:37.891Z,121.93
2019-05-11T19:07:19.585Z,25.35
2019-05-11T19:07:58.408Z,22.55
2019-05-11T19:08:38.508Z,22.87
2019-05-11T19:09:18.012Z,28.27
2019-05-11T19:09:57.731Z,72.15
2019-05-11T19:10:38.352Z,110.13
2019-05-11T19:11:18.282Z,80.45
2019-05-11T19:11:57.759Z,79.65
2019-05-11T19:12:37.657Z,49.63
2019-05-11T19:13:20.164Z,45.30
2019-05-11T19:13:58.976Z,96.08
2019-05-11T19:14:38.553Z,95.28
2019-05-11T19:15:18.701Z,90.53
2019-05-11T19:15:58.911Z,43.73
2019-05-11T19:16:38.960Z,73.55
2019-05-11T19:17:19.306Z,67.95
2019-05-11T19:17:59.439Z,87.00
2019-05-11T19:18:38.794Z,13.93
2019-05-11T19:19:18.422Z,93.82
2019-05-11T19:19:57.968Z,49.58
2019-05-11T19:20:45.365Z,71.53
2019-05-11T19:21:17.994Z,96.55
2019-05-11T19:22:03.358Z,71.82
2019-05-11T19:22:43.638Z,45.00
2019-05-11T19:23:22.048Z,88.17
2019-05-11T19:24:00.820Z,100.20
2019-05-11T19:24:39.737Z,61.60
2019-05-11T19:25:18.358Z,35.23
2019-05-11T19:25:57.887Z,42.48
2019-05-11T19:26:37.102Z,73.53
2019-05-11T19:27:18.408Z,56.42
2019-05-11T19:27:55.774Z,66.17
2019-05-11T19:28:34.485Z,111.80
2019-05-11T19:29:13.407Z,61.85
2019-05-11T19:29:52.226Z,63.13
2019-05-11T19:30:32.474Z,116.30
2019-05-11T19:31:11.386Z,96.05
2019-05-11T19:31:52.668Z,123.55
2019-05-11T19:32:31.532Z,114.45
2019-05-11T19:33:11.124Z,55.55
2019-05-11T19:33:50.316Z,70.08
2019-05-11T19:34:30.692Z,105.32
2019-05-11T19:35:11.370Z,122.10
2019-05-11T19:35:50.150Z,39.10
2019-05-11T19:36:28.952Z,78.55
2019-05-11T19:37:08.632Z,77.45
2019-05-11T19:37:48.698Z,74.22
2019-05-11T19:38:28.023Z,63.92
2019-05-11T19:39:09.090Z,100.65
2019-05-11T19:39:50.625Z,55.65
2019-05-11T19:40:27.862Z,62.90
2019-05-11T19:41:08.111Z,126.33
2019-05-11T19:41:47.031Z,122.95
2019-05-11T19:42:25.874Z,106.43
2019-05-11T19:43:04.610Z,121.35
2019-05-11T19:43:44.822Z,151.55
2019-05-11T19:44:23.563Z,92.57
2019-05-11T19:45:02.403Z,104.35
2019-05-11T19:45:42.422Z,101.35
2019-05-11T19:46:21.274Z,134.97
2019-05-11T19:47:00.146Z,84.55
2019-05-11T19:47:39.107Z,86.72
2019-05-11T19:48:17.552Z,109.80
2019-05-11T19:48:57.942Z,114.05
2019-05-11T19:49:38.383Z,76.00
2019-05-11T19:50:16.930Z,112.28
2019-05-11T19:51:04.667Z,98.10
2019-05-11T19:51:39.585Z,167.18
2019-05-11T19:52:17.827Z,143.70
2019-05-11T19:52:57.966Z,91.28
2019-05-11T19:53:38.440Z,117.45
2019-05-11T19:54:18.412Z,120.55
2019-05-11T19:54:57.787Z,111.68
2019-05-11T19:55:37.615Z,97.30
2019-05-11T19:56:18.750Z,178.40
2019-05-11T19:56:57.856Z,100.78
2019-05-11T19:57:38.586Z,85.40
2019-05-11T19:58:19.170Z,124.38
2019-05-11T19:58:57.951Z,130.37
2019-05-11T19:59:38.730Z,89.25
2019-05-11T20:00:18.421Z,206.35
2019-05-11T20:00:57.978Z,141.03
2019-05-11T20:01:38.321Z,83.25
2019-05-11T20:02:17.863Z,189.15
2019-05-11T20:02:58.545Z,136.43
2019-05-11T20:03:38.019Z,142.20
2019-05-11T20:04:18.657Z,146.47
2019-05-11T20:04:58.653Z,140.12
2019-05-11T20:05:38.011Z,137.62
2019-05-11T20:06:16.567Z,182.50
2019-05-11T20:06:55.323Z,170.87
2019-05-11T20:07:34.066Z,141.20
2019-05-11T20:08:12.835Z,124.27
2019-05-11T20:08:51.271Z,144.22
2019-05-11T20:09:32.602Z,137.92
2019-05-11T20:10:11.366Z,173.72
2019-05-11T20:10:50.114Z,205.77
2019-05-11T20:11:28.535Z,135.93
2019-05-11T20:12:07.366Z,218.02
2019-05-11T20:12:48.087Z,253.30
2019-05-11T20:13:28.367Z,222.07
2019-05-11T20:14:08.025Z,240.97
2019-05-11T20:14:48.236Z,264.85
2019-05-11T20:15:27.140Z,209.98
2019-05-11T20:16:08.115Z,312.32
2019-05-11T20:16:47.696Z,190.32
2019-05-11T20:17:25.968Z,165.90
2019-05-11T20:18:07.769Z,218.73
2019-05-11T20:18:45.862Z,210.28
2019-05-11T20:19:24.296Z,173.15
2019-05-11T20:20:03.070Z,207.70
2019-05-11T20:20:41.867Z,218.10
2019-05-11T20:21:23.082Z,166.95
2019-05-11T20:22:00.867Z,160.60
2019-05-11T20:22:39.951Z,211.80
2019-05-11T20:23:18.655Z,202.87
2019-05-11T20:23:57.873Z,257.07
2019-05-11T20:24:38.714Z,200.90
2019-05-11T20:25:20.013Z,159.43
2019-05-11T20:25:58.826Z,112.55
2019-05-11T20:26:38.205Z,141.57
2019-05-11T20:27:18.488Z,128.07
2019-05-11T20:27:58.561Z,156.93
2019-05-11T20:28:37.831Z,149.67
2019-05-11T20:29:17.052Z,189.57
2019-05-11T20:29:57.868Z,241.15
2019-05-11T20:30:36.140Z,214.17
2019-05-11T20:31:18.376Z,170.00
2019-05-11T20:31:57.829Z,176.87
2019-05-11T20:32:38.698Z,249.30
2019-05-11T20:33:18.840Z,185.45
2019-05-11T20:33:59.232Z,219.82
2019-05-11T20:34:38.167Z,264.37
2019-05-11T20:35:18.288Z,182.40
2019-05-11T20:35:58.141Z,198.10
2019-05-11T20:36:37.110Z,198.33
2019-05-11T20:37:15.533Z,220.80
2019-05-11T20:37:54.282Z,286.90
2019-05-11T20:38:33.045Z,166.77
2019-05-11T20:39:14.962Z,209.87
2019-05-11T20:39:53.985Z,145.28
2019-05-11T20:40:32.899Z,143.32
2019-05-11T20:41:11.685Z,270.77
2019-05-11T20:41:50.462Z,282.92
2019-05-11T20:42:28.878Z,189.90
2019-05-11T20:43:08.006Z,297.00
2019-05-11T20:43:48.790Z,244.03
2019-05-11T20:44:28.708Z,223.90
2019-05-11T20:45:07.761Z,182.53
2019-05-11T20:45:48.593Z,216.15
2019-05-11T20:46:27.743Z,172.43
2019-05-11T20:47:06.774Z,188.78
2019-05-11T20:47:45.231Z,182.95
2019-05-11T20:48:24.114Z,254.00
2019-05-11T20:49:02.911Z,234.45
2019-05-11T20:49:41.638Z,206.68
2019-05-11T20:50:20.358Z,209.50
2019-05-11T20:50:59.063Z,311.82
2019-05-11T20:51:38.198Z,244.35
2019-05-11T20:52:17.814Z,231.07
2019-05-11T20:52:58.228Z,240.28
2019-05-11T20:53:38.584Z,103.60
2019-05-11T20:54:19.659Z,278.50
2019-05-11T20:54:58.307Z,162.82
2019-05-11T20:55:39.188Z,205.95
2019-05-11T20:56:20.291Z,231.57
2019-05-11T20:56:59.920Z,182.75
2019-05-11T20:57:39.688Z,179.93
2019-05-11T20:58:18.844Z,291.47
2019-05-11T20:58:59.703Z,275.87
2019-05-11T20:59:38.680Z,266.50
2019-05-11T21:00:18.737Z,246.03
2019-05-11T21:00:57.480Z,263.05
2019-05-11T21:01:38.552Z,266.50
2019-05-11T21:02:18.303Z,331.98
2019-05-11T21:02:58.787Z,202.10
2019-05-11T21:03:38.120Z,188.45
2019-05-11T21:04:18.767Z,270.25
2019-05-11T21:04:58.679Z,258.15
2019-05-11T21:05:37.939Z,185.28
2019-05-11T21:06:18.485Z,277.10
2019-05-11T21:06:57.990Z,281.23
2019-05-11T21:07:38.975Z,186.52
2019-05-11T21:08:17.796Z,166.55
2019-05-11T21:08:56.350Z,296.10
2019-05-11T21:09:37.999Z,266.38
2019-05-11T21:11:19.283Z,231.35
2019-05-11T21:11:58.802Z,205.83
2019-05-11T21:12:38.691Z,311.57
2019-05-11T21:13:18.854Z,320.97
2019-05-11T21:13:57.269Z,217.18
2019-05-11T21:14:38.403Z,271.15
2019-05-11T21:15:16.426Z,222.45
2019-05-11T21:16:00.171Z,275.35
2019-05-11T21:16:39.221Z,153.00
2019-05-11T21:17:18.307Z,327.82
2019-05-11T21:17:58.644Z,292.75
2019-05-11T21:18:38.454Z,337.63
2019-05-11T21:19:18.734Z,336.05
2019-05-11T21:19:57.715Z,253.25
2019-05-11T21:20:38.015Z,317.10
2019-05-11T21:21:16.484Z,245.17
2019-05-11T21:21:55.278Z,282.92
2019-05-11T21:22:34.035Z,259.67
2019-05-11T21:23:12.791Z,191.95
2019-05-11T21:23:51.808Z,380.57
2019-05-11T21:24:30.909Z,224.75
2019-05-11T21:25:09.889Z,229.30
2019-05-11T21:25:48.678Z,282.50
2019-05-11T21:26:28.253Z,118.47
2019-05-11T21:27:07.079Z,216.82
2019-05-11T21:27:45.817Z,117.42
2019-05-11T21:28:24.884Z,228.25
2019-05-11T21:29:03.703Z,184.25
2019-05-11T21:29:42.528Z,229.13
2019-05-11T21:30:21.364Z,175.50
2019-05-11T21:31:00.138Z,292.05
2019-05-11T21:31:40.802Z,257.10
2019-05-11T21:32:18.751Z,184.95
2019-05-11T21:32:58.219Z,229.43
2019-05-11T21:33:37.883Z,337.35
2019-05-11T21:34:18.165Z,294.90
2019-05-11T21:34:58.334Z,248.22
2019-05-11T21:35:38.605Z,203.30
2019-05-11T21:36:18.019Z,199.57
2019-05-11T21:37:00.597Z,197.68
2019-05-11T21:37:39.679Z,289.08
2019-05-11T21:38:18.382Z,265.25
2019-05-11T21:38:58.777Z,200.32
2019-05-11T21:39:37.894Z,162.37
2019-05-11T21:40:16.746Z,212.42
2019-05-11T21:40:57.819Z,309.70
2019-05-11T21:41:35.885Z,256.87
2019-05-11T21:42:14.278Z,285.32
2019-05-11T21:42:53.035Z,228.67
2019-05-11T21:43:31.807Z,151.25
2019-05-11T21:44:10.625Z,278.80
2019-05-11T21:44:49.070Z,223.38
2019-05-11T21:45:28.419Z,156.45
2019-05-11T21:46:08.234Z,236.00
2019-05-11T21:46:47.191Z,149.35
2019-05-11T21:47:25.607Z,261.98
2019-05-11T21:48:04.337Z,158.65
2019-05-11T21:48:43.086Z,186.93
2019-05-11T21:49:21.830Z,78.78
2019-05-11T21:50:00.894Z,207.75
2019-05-11T21:50:40.106Z,189.63
2019-05-11T21:51:19.004Z,237.72
2019-05-11T21:52:04.501Z,191.35
2019-05-11T21:52:38.377Z,244.43
2019-05-11T21:53:18.435Z,195.72
2019-05-11T21:53:57.862Z,179.97
2019-05-11T21:54:38.653Z,231.13
2019-05-11T21:55:16.842Z,190.50
2019-05-11T21:55:55.598Z,302.50
2019-05-11T21:56:34.355Z,202.18
2019-05-11T21:57:13.105Z,210.95
2019-05-11T21:57:51.551Z,174.15
2019-05-11T21:58:30.498Z,298.50
2019-05-11T21:59:10.221Z,324.12
2019-05-11T21:59:48.997Z,233.30
2019-05-11T22:00:28.795Z,98.50
2019-05-11T22:01:08.802Z,121.53
2019-05-11T22:01:48.502Z,295.57
2019-05-11T22:02:28.686Z,155.60
2019-05-11T22:03:09.960Z,259.77
2019-05-11T22:03:48.008Z,100.47
2019-05-11T22:04:28.491Z,263.50
2019-05-11T22:05:07.349Z,251.37
2019-05-11T22:05:45.882Z,325.77
2019-05-11T22:06:24.867Z,338.85
2019-05-11T22:07:03.754Z,314.88
2019-05-11T22:07:43.194Z,362.95
2019-05-11T22:08:21.611Z,294.00
2019-05-11T22:09:04.553Z,331.90
2019-05-11T22:09:43.307Z,206.95
2019-05-11T22:10:23.043Z,233.02
2019-05-11T22:11:01.814Z,270.05
2019-05-11T22:11:48.508Z,194.13
2019-05-11T22:12:27.928Z,199.05
2019-05-11T22:13:06.455Z,244.75
2019-05-11T22:13:45.542Z,235.68
2019-05-11T22:14:24.338Z,303.58
2019-05-11T22:15:02.838Z,271.87
2019-05-11T22:15:41.636Z,289.85
2019-05-11T22:16:23.062Z,249.70
2019-05-11T22:17:02.591Z,162.07
2019-05-11T22:17:41.252Z,235.23
2019-05-11T22:18:30.216Z,161.03
2019-05-11T22:19:00.200Z,145.12
2019-05-11T22:19:40.507Z,244.05
2019-05-11T22:20:19.137Z,212.45
2019-05-11T22:20:58.162Z,187.75
2019-05-11T22:21:36.958Z,223.65
2019-05-11T22:22:22.286Z,172.70
2019-05-11T22:22:58.058Z,161.73
2019-05-11T22:23:35.973Z,189.45
2019-05-11T22:24:17.780Z,268.23
2019-05-11T22:24:58.389Z,213.68
2019-05-11T22:25:38.335Z,259.48
2019-05-11T22:26:18.162Z,233.57
2019-05-11T22:27:02.038Z,195.62
2019-05-11T22:27:40.907Z,186.07
2019-05-11T22:28:19.786Z,192.55
2019-05-11T22:28:58.849Z,233.05
2019-05-11T22:29:37.941Z,168.50
2019-05-11T22:30:18.480Z,142.60
2019-05-11T22:30:56.933Z,164.13
2019-05-11T22:31:35.667Z,211.65
2019-05-11T22:32:15.247Z,218.80
2019-05-11T22:32:53.974Z,201.80
2019-05-11T22:33:32.977Z,226.90
2019-05-11T22:34:11.829Z,273.48
2019-05-11T22:34:50.334Z,218.17
2019-05-11T22:35:29.122Z,169.10
2019-05-11T22:36:08.086Z,251.25
2019-05-11T22:36:49.528Z,208.10
2019-05-11T22:37:28.875Z,266.57
2019-05-11T22:38:08.469Z,254.30
2019-05-11T22:38:48.290Z,210.08
2019-05-11T22:39:27.091Z,257.20
2019-05-11T22:40:05.495Z,177.93
2019-05-11T22:40:44.429Z,139.00
2019-05-11T22:41:23.543Z,166.18
2019-05-11T22:42:02.934Z,93.82
2019-05-11T22:42:42.382Z,188.07
2019-05-11T22:43:21.279Z,147.95
2019-05-11T22:44:00.078Z,234.98
2019-05-11T22:44:38.978Z,164.62
2019-05-11T22:45:18.618Z,279.07
2019-05-11T22:45:58.094Z,175.22
2019-05-11T22:46:38.570Z,221.82
2019-05-11T22:47:17.921Z,191.90
2019-05-11T22:47:58.389Z,147.72
2019-05-11T22:48:38.129Z,119.93
2019-05-11T22:49:17.772Z,214.93
2019-05-11T22:49:58.295Z,179.57
2019-05-11T22:50:38.275Z,141.10
2019-05-11T22:51:18.331Z,164.10
2019-05-11T22:51:59.595Z,115.85
2019-05-11T22:52:39.793Z,141.92
2019-05-11T22:53:18.850Z,199.12
2019-05-11T22:53:59.181Z,192.37
2019-05-11T22:54:38.345Z,205.40
2019-05-11T22:55:19.030Z,163.03
2019-05-11T22:55:57.953Z,153.32
2019-05-11T22:56:38.044Z,191.85
2019-05-11T22:57:16.998Z,204.55
2019-05-11T22:57:57.747Z,236.75
2019-05-11T22:58:35.621Z,186.50
2019-05-11T22:59:14.553Z,205.98
2019-05-11T22:59:53.531Z,196.63
2019-05-11T23:00:45.762Z,141.85
2019-05-11T23:01:24.513Z,179.20
2019-05-11T23:02:03.290Z,117.67
2019-05-11T23:02:42.046Z,237.60
2019-05-11T23:03:22.799Z,140.37
2019-05-11T23:04:00.907Z,168.15
2019-05-11T23:04:39.922Z,224.88
2019-05-11T23:05:18.808Z,208.25
2019-05-11T23:05:58.386Z,164.03
2019-05-11T23:06:40.339Z,220.82
2019-05-11T23:07:18.489Z,199.57
2019-05-11T23:07:58.665Z,187.30
2019-05-11T23:08:37.171Z,157.82
2019-05-11T23:09:18.460Z,215.05
2019-05-11T23:09:57.645Z,137.97
2019-05-11T23:10:38.689Z,206.03
2019-05-11T23:11:17.953Z,181.82
2019-05-11T23:12:00.741Z,158.45
2019-05-11T23:12:40.309Z,145.40
2019-05-11T23:13:21.333Z,252.45
2019-05-11T23:14:00.167Z,181.43
2019-05-11T23:14:38.958Z,132.60
2019-05-11T23:15:20.158Z,265.77
2019-05-11T23:16:00.151Z,187.40
2019-05-11T23:16:39.230Z,199.37
2019-05-11T23:17:21.081Z,100.35
2019-05-11T23:17:59.964Z,201.80
2019-05-11T23:18:39.006Z,210.50
2019-05-11T23:19:18.274Z,150.00
2019-05-11T23:19:57.947Z,158.50
2019-05-11T23:20:38.689Z,144.23
2019-05-11T23:21:17.150Z,183.37
2019-05-11T23:21:56.002Z,266.98
2019-05-11T23:22:50.995Z,170.62
2019-05-11T23:23:17.737Z,95.32
2019-05-11T23:23:58.310Z,162.27
2019-05-11T23:24:37.092Z,142.67
2019-05-11T23:25:18.222Z,165.32
2019-05-11T23:25:59.695Z,160.85
2019-05-11T23:26:38.650Z,137.00
2019-05-11T23:27:18.119Z,50.08
2019-05-11T23:27:58.824Z,184.43
2019-05-11T23:28:37.906Z,212.35
2019-05-11T23:29:16.521Z,163.52
2019-05-11T23:29:55.322Z,118.20
2019-05-11T23:30:34.037Z,134.20
2019-05-11T23:31:12.831Z,154.57
2019-05-11T23:31:54.002Z,171.02
2019-05-11T23:32:32.765Z,176.50
2019-05-11T23:33:11.614Z,163.45
2019-05-11T23:33:51.018Z,143.28
2019-05-11T23:34:29.776Z,166.57
2019-05-11T23:35:08.609Z,175.03
2019-05-11T23:35:48.608Z,113.10
2019-05-11T23:36:28.283Z,237.57
2019-05-11T23:37:07.992Z,170.20
2019-05-11T23:37:48.596Z,237.23
2019-05-11T23:38:28.217Z,169.50
2019-05-11T23:39:08.998Z,249.95
2019-05-11T23:39:48.068Z,219.28
2019-05-11T23:40:28.464Z,140.52
2019-05-11T23:41:08.287Z,119.77
2019-05-11T23:41:48.308Z,180.57
2019-05-11T23:42:28.853Z,205.67
2019-05-11T23:43:08.988Z,176.75
2019-05-11T23:43:48.050Z,142.53
2019-05-11T23:44:26.605Z,124.62
2019-05-11T23:45:05.275Z,239.35
2019-05-11T23:45:44.084Z,167.40
2019-05-11T23:46:22.893Z,150.32
2019-05-11T23:47:02.054Z,191.37
2019-05-11T23:47:41.003Z,214.02
2019-05-11T23:48:19.780Z,243.07
2019-05-11T23:48:58.475Z,149.05
2019-05-11T23:49:37.034Z,199.60
2019-05-11T23:50:15.558Z,175.32
2019-05-11T23:50:54.303Z,194.85
2019-05-11T23:51:34.550Z,198.78
2019-05-11T23:52:13.258Z,202.90
2019-05-11T23:53:05.405Z,209.00
2019-05-11T23:53:32.042Z,280.73
2019-05-11T23:54:10.925Z,176.07
2019-05-11T23:54:49.576Z,228.55
2019-05-11T23:55:28.906Z,227.65
2019-05-11T23:56:08.545Z,158.05
2019-05-11T23:56:50.346Z,196.40
2019-05-11T23:57:28.926Z,159.25
2019-05-11T23:58:08.206Z,207.07
2019-05-11T23:58:48.298Z,174.75
2019-05-11T23:59:27.167Z,145.35
